Capitol Logistics 119


KLAX
Los Angeles International Airport
Los Angeles, California, US
PANC
Ted Stevens Anchorage International Airport
Anchorage, Alaska, US

Route Details

Aircraft Information
Primary: Boeing 747-400BCF
Backup: Boeing 777-200LRF
Route Data
Distance: 2089nm
Sched. Duration: 4h 40m
Avg. Duration: 5h 10m (+70m)
Times Flown: 16
Recm'd Route: SUMMR1 SCTRR PYE J143 ENI FOT BOXER B453 MDO WITTI4
Planned Altitude: 34,000ft
Origin Wx: KLAX 271853Z 21007KT 10SM FEW100 FEW150 23/M10 A3004 RMK AO2 SLP170 FU FEW100 FU FEW150 T02331100 $
Dest. Wx: PANC 271853Z 00000KT 10SM BKN005 01/M01 A2992 RMK AO2 SLP133 I1001 T00061011 $
Notes:

Financial History
Total Freight: 1,939,829lbs
Average Load: 121,239lbs/flt
Fuel Used: 951,728lbs
Avg. Fuel Used: 59,483lbs/flt
Fuel Expense: $1,130,118
Avg. Fuel Expense: $70,632
Avg. Fuel Cost: $1.19/lbs
Total Gross Income: $2,610,442
Pilot Pay: $3,134
Total Expenses: $278,051
Total Revenue: $1,182,903
Average Revenue: $163,152.64